Time;durP1;ratioP1;P1;durP2;ratioP2;P2;SDS_P1;SDS_P2;PMS_P1;PMS_P2;Temp;Humidity;BMP_temperature;BMP_pressure;BME280_temperature;BME280_humidity;BME280_pressure;Samples;Min_cycle;Max_cycle;Signal;HPM_P1;HPM_P2
2022/12/02 00:01:54;;;;;;;;;;;;;;;5.09;74.68;102798.94;4873012;29;4721;-91
2022/12/02 00:04:21;;;;;;;;;;;;;;;5.09;74.62;102807.81;4872742;29;4467;-88
2022/12/02 00:06:48;;;;;;;;;;;;;;;5.07;74.43;102807.09;4889354;29;4457;-90
2022/12/02 00:09:14;;;;;;;;;;;;;;;5.01;74.93;102803.13;4873420;29;4487;-91
2022/12/02 00:11:41;;;;;;;;;;;;;;;5.07;74.81;102812.44;4891322;29;4432;-91
2022/12/02 00:14:07;;;;;;;;;;;;;;;5.02;74.80;102803.97;4873502;29;4457;-88
2022/12/02 00:16:34;;;;;;;;;;;;;;;5.12;74.55;102799.56;4870276;29;4606;-89
2022/12/02 00:19:00;;;;;;;;;;;;;;;5.08;74.75;102805.28;4877433;29;4438;-88
2022/12/02 00:21:27;;;;;;;;;;;;;;;5.06;74.78;102805.41;4871363;29;4714;-90
2022/12/02 00:23:53;;;;;;;;;;;;;;;5.10;74.49;102804.16;4875987;29;4706;-90
2022/12/02 00:26:21;;;;;;;;;;;;;;;5.09;74.59;102798.94;4888422;29;4478;-88
2022/12/02 00:28:47;;;;;;;;;;;;;;;5.09;74.76;102798.94;4887760;29;4869;-89
2022/12/02 00:31:14;;;;;;;;;;;;;;;5.11;74.70;102802.34;4875997;29;4498;-90
2022/12/02 00:33:40;;;;;;;;;;;;;;;5.12;74.90;102810.25;4872191;29;4533;-90
2022/12/02 00:36:07;;;;;;;;;;;;;;;5.17;74.49;102805.34;4881767;29;4465;-90
2022/12/02 00:38:33;;;;;;;;;;;;;;;5.17;74.29;102802.66;4860216;29;4428;-90
2022/12/02 00:41:00;;;;;;;;;;;;;;;5.19;74.40;102800.72;4858099;29;4528;-90
2022/12/02 00:48:55;;;;;;;;;;;;;;;5.18;74.42;102784.84;4867932;29;4666;-89
2022/12/02 00:51:21;;;;;;;;;;;;;;;5.15;74.38;102785.94;4876717;29;4559;-88
2022/12/02 00:53:48;;;;;;;;;;;;;;;5.16;74.46;102789.44;4886921;29;4543;-89
2022/12/02 00:56:14;;;;;;;;;;;;;;;5.20;74.26;102785.53;4860740;29;4360;-91
2022/12/02 00:58:41;;;;;;;;;;;;;;;5.14;74.60;102786.91;4858002;29;4420;-90
2022/12/02 01:01:07;;;;;;;;;;;;;;;5.11;74.65;102788.97;4872514;29;4852;-90
2022/12/02 01:03:34;;;;;;;;;;;;;;;5.06;74.78;102791.19;4855791;29;4420;-90
2022/12/02 01:06:00;;;;;;;;;;;;;;;5.16;74.53;102784.94;4876787;29;4694;-90
2022/12/02 01:08:27;;;;;;;;;;;;;;;5.14;74.56;102780.72;4876249;29;4413;-90
2022/12/02 01:10:53;;;;;;;;;;;;;;;5.18;74.58;102777.66;4877516;29;4538;-91
2022/12/02 01:13:20;;;;;;;;;;;;;;;5.21;73.95;102779.22;4871691;29;4469;-90
2022/12/02 01:15:47;;;;;;;;;;;;;;;5.19;74.36;102774.00;4857300;29;4474;-90
2022/12/02 01:18:13;;;;;;;;;;;;;;;5.18;74.45;102782.16;4879354;29;4375;-89
2022/12/02 01:20:40;;;;;;;;;;;;;;;5.19;74.28;102783.84;4875552;29;4449;-88
2022/12/02 01:23:06;;;;;;;;;;;;;;;5.18;74.41;102769.66;4877934;29;4714;-88
2022/12/02 01:25:33;;;;;;;;;;;;;;;5.18;74.56;102764.31;4874839;29;4354;-91
2022/12/02 01:27:59;;;;;;;;;;;;;;;5.16;74.50;102768.91;4872973;29;4235;-90
2022/12/02 01:30:26;;;;;;;;;;;;;;;5.10;74.65;102769.44;4864320;29;4620;-89
2022/12/02 01:32:53;;;;;;;;;;;;;;;5.12;74.59;102763.97;4873405;29;4285;-89
2022/12/02 01:35:19;;;;;;;;;;;;;;;5.15;74.38;102769.91;4873547;29;4300;-90
2022/12/02 01:37:46;;;;;;;;;;;;;;;5.17;74.44;102765.25;4881845;29;4464;-89
2022/12/02 01:40:12;;;;;;;;;;;;;;;5.14;74.44;102768.19;4871619;29;4538;-90
2022/12/02 01:42:39;;;;;;;;;;;;;;;5.18;74.41;102772.31;4878023;29;4350;-90
2022/12/02 01:45:05;;;;;;;;;;;;;;;5.10;74.61;102773.94;4872559;29;4505;-90
2022/12/02 01:47:32;;;;;;;;;;;;;;;5.11;74.49;102771.13;4878698;29;4423;-91
2022/12/02 01:49:58;;;;;;;;;;;;;;;5.13;74.63;102773.69;4875574;29;4385;-91
2022/12/02 01:52:25;;;;;;;;;;;;;;;5.14;74.47;102772.69;4873378;29;4361;-90
2022/12/02 01:54:51;;;;;;;;;;;;;;;5.06;74.77;102768.00;4862836;29;4533;-91
2022/12/02 01:57:18;;;;;;;;;;;;;;;5.18;74.31;102766.97;4873324;29;4481;-89
2022/12/02 01:59:44;;;;;;;;;;;;;;;5.12;74.59;102766.66;4860839;29;4477;-90
2022/12/02 02:02:11;;;;;;;;;;;;;;;5.13;74.46;102768.34;4873162;29;4146;-89
2022/12/02 02:04:38;;;;;;;;;;;;;;;5.10;74.74;102766.78;4872141;29;4493;-89
2022/12/02 02:07:05;;;;;;;;;;;;;;;5.15;74.53;102761.06;4874201;29;4436;-89
2022/12/02 02:09:31;;;;;;;;;;;;;;;5.11;74.47;102762.28;4881060;29;4709;-90
2022/12/02 02:11:58;;;;;;;;;;;;;;;5.12;74.64;102772.00;4874128;29;4350;-91
2022/12/02 02:14:24;;;;;;;;;;;;;;;5.09;74.70;102769.56;4861640;29;4479;-90
2022/12/02 02:16:51;;;;;;;;;;;;;;;5.08;74.76;102768.72;4855483;29;4253;-89
2022/12/02 02:19:17;;;;;;;;;;;;;;;5.13;74.44;102768.34;4873914;29;4392;-91
2022/12/02 02:21:44;;;;;;;;;;;;;;;5.09;74.54;102767.75;4863474;29;4660;-90
2022/12/02 02:24:10;;;;;;;;;;;;;;;5.13;74.44;102769.19;4860358;29;4449;-88
2022/12/02 02:26:37;;;;;;;;;;;;;;;5.09;74.79;102773.09;4865543;29;4499;-90
2022/12/02 02:29:03;;;;;;;;;;;;;;;5.14;74.45;102784.22;4875817;29;4614;-90
2022/12/02 02:31:30;;;;;;;;;;;;;;;5.16;74.43;102778.75;4873802;29;4534;-91
2022/12/02 02:33:57;;;;;;;;;;;;;;;5.06;74.73;102777.81;4874718;29;4360;-91
2022/12/02 02:36:23;;;;;;;;;;;;;;;5.10;74.53;102779.28;4860461;29;4472;-90
2022/12/02 02:38:50;;;;;;;;;;;;;;;5.09;74.66;102777.56;4857184;29;4347;-90
2022/12/02 02:41:16;;;;;;;;;;;;;;;5.04;74.80;102780.66;4856318;29;4465;-90
2022/12/02 02:43:43;;;;;;;;;;;;;;;5.07;74.44;102776.88;4874035;29;4463;-91
2022/12/02 02:46:09;;;;;;;;;;;;;;;5.06;74.56;102778.69;4873380;29;4431;-90
2022/12/02 02:48:36;;;;;;;;;;;;;;;5.04;74.75;102775.31;4882433;29;4478;-90
2022/12/02 02:51:03;;;;;;;;;;;;;;;5.01;74.84;102781.75;4878528;29;4460;-90
2022/12/02 02:53:29;;;;;;;;;;;;;;;4.99;74.99;102777.50;4879421;29;4507;-90
2022/12/02 02:55:56;;;;;;;;;;;;;;;4.95;75.05;102779.59;4883761;29;4584;-91
2022/12/02 02:58:22;;;;;;;;;;;;;;;5.03;74.97;102773.63;4874095;29;3563;-90
2022/12/02 03:00:49;;;;;;;;;;;;;;;5.07;74.85;102787.56;4873430;29;4404;-90
2022/12/02 03:03:15;;;;;;;;;;;;;;;5.10;74.47;102780.13;4867975;29;4442;-91
2022/12/02 03:05:42;;;;;;;;;;;;;;;5.03;74.69;102781.63;4878668;29;4369;-91
2022/12/02 03:08:08;;;;;;;;;;;;;;;5.01;74.79;102781.75;4875198;29;4381;-91
2022/12/02 03:10:35;;;;;;;;;;;;;;;5.04;74.69;102782.47;4875254;29;4406;-91
2022/12/02 03:13:01;;;;;;;;;;;;;;;5.00;74.87;102779.22;4853434;29;4605;-90
2022/12/02 03:15:28;;;;;;;;;;;;;;;4.99;74.99;102782.84;4873287;29;4313;-91
2022/12/02 03:17:55;;;;;;;;;;;;;;;4.95;74.98;102774.25;4873984;29;4588;-90
2022/12/02 03:20:21;;;;;;;;;;;;;;;5.01;74.71;102781.75;4857526;29;4405;-91
2022/12/02 03:22:48;;;;;;;;;;;;;;;4.95;74.91;102776.09;4877631;29;4580;-90
2022/12/02 03:25:14;;;;;;;;;;;;;;;4.93;75.08;102778.03;4861089;29;4515;-91
2022/12/02 03:27:41;;;;;;;;;;;;;;;4.94;75.01;102783.25;4871752;29;4396;-91
2022/12/02 03:30:07;;;;;;;;;;;;;;;5.04;74.73;102777.97;4872957;29;4360;-92
2022/12/02 03:32:34;;;;;;;;;;;;;;;4.98;74.86;102776.66;4871242;29;4533;-90
2022/12/02 03:35:01;;;;;;;;;;;;;;;4.94;75.04;102793.94;4873745;29;4404;-90
2022/12/02 03:37:28;;;;;;;;;;;;;;;4.94;75.14;102782.38;4856620;29;4458;-90
2022/12/02 03:39:54;;;;;;;;;;;;;;;4.95;75.04;102781.41;4860106;29;4347;-91
2022/12/02 03:42:21;;;;;;;;;;;;;;;5.01;74.88;102788.91;4870951;29;4493;-90
2022/12/02 03:44:47;;;;;;;;;;;;;;;5.01;74.92;102788.91;4871589;29;4612;-90
2022/12/02 03:47:14;;;;;;;;;;;;;;;4.96;74.93;102786.63;4872262;29;4523;-90
2022/12/02 03:49:40;;;;;;;;;;;;;;;5.00;74.76;102790.75;4887112;29;4439;-90
2022/12/02 03:52:07;;;;;;;;;;;;;;;4.98;74.82;102795.34;4885208;29;4983;-90
2022/12/02 03:54:33;;;;;;;;;;;;;;;4.97;75.04;102801.69;4887721;29;4651;-90
2022/12/02 03:57:00;;;;;;;;;;;;;;;5.07;74.61;102800.91;4868427;29;4490;-90
2022/12/02 03:59:26;;;;;;;;;;;;;;;5.10;74.62;102806.00;4874470;29;4512;-90
2022/12/02 04:01:53;;;;;;;;;;;;;;;5.09;74.51;102801.63;4889344;29;4583;-90
2022/12/02 04:04:19;;;;;;;;;;;;;;;5.04;74.71;102807.34;4889695;29;4983;-90
2022/12/02 04:06:46;;;;;;;;;;;;;;;5.13;74.21;102803.06;4891553;29;4483;-90
2022/12/02 04:09:12;;;;;;;;;;;;;;;5.05;74.52;102806.38;4887749;29;4514;-90
2022/12/02 04:11:39;;;;;;;;;;;;;;;5.06;74.58;102804.53;4889789;29;5019;-91
2022/12/02 04:14:06;;;;;;;;;;;;;;;5.03;74.71;102805.66;4875355;29;4602;-90
2022/12/02 04:16:36;;;;;;;;;;;;;;;5.07;74.45;102803.59;4869569;29;4444;-90
2022/12/02 04:19:04;;;;;;;;;;;;;;;5.07;74.67;102803.59;4873838;29;4519;-89
2022/12/02 04:21:33;;;;;;;;;;;;;;;5.13;74.47;102801.25;4872198;29;4529;-90
2022/12/02 04:24:00;;;;;;;;;;;;;;;5.10;74.54;102796.16;4873220;29;4526;-91
2022/12/02 04:26:27;;;;;;;;;;;;;;;5.12;74.32;102791.53;4876734;29;4570;-89
2022/12/02 04:28:53;;;;;;;;;;;;;;;5.07;74.61;102793.75;4872647;29;4459;-90
2022/12/02 04:31:20;;;;;;;;;;;;;;;5.04;74.69;102798.50;4871909;29;4366;-90
2022/12/02 04:33:46;;;;;;;;;;;;;;;5.08;74.57;102803.44;4875493;29;4553;-91
2022/12/02 04:36:13;;;;;;;;;;;;;;;5.03;74.60;102795.00;4874126;29;4415;-90
2022/12/02 04:38:39;;;;;;;;;;;;;;;5.06;74.56;102800.06;4890421;29;4544;-90
2022/12/02 04:41:06;;;;;;;;;;;;;;;5.01;74.69;102799.59;4887462;29;4590;-90
2022/12/02 04:43:32;;;;;;;;;;;;;;;5.03;74.64;102804.78;4873786;29;4479;-91
2022/12/02 04:45:59;;;;;;;;;;;;;;;4.99;74.92;102806.88;4885728;29;4601;-90
2022/12/02 04:48:25;;;;;;;;;;;;;;;4.97;75.02;102800.81;4872549;29;4426;-90
2022/12/02 04:50:52;;;;;;;;;;;;;;;5.00;74.97;102793.41;4891062;29;4672;-90
2022/12/02 04:53:18;;;;;;;;;;;;;;;5.05;74.64;102798.34;4887976;29;4513;-90
2022/12/02 04:55:46;;;;;;;;;;;;;;;5.06;74.67;102791.19;4885464;29;4581;-90
2022/12/02 04:58:12;;;;;;;;;;;;;;;5.02;74.72;102798.63;4878009;29;4353;-90
2022/12/02 05:00:39;;;;;;;;;;;;;;;5.03;74.78;102807.47;4874987;29;4595;-90
2022/12/02 05:03:06;;;;;;;;;;;;;;;5.05;74.64;102802.84;4871688;29;4625;-90
2022/12/02 05:05:32;;;;;;;;;;;;;;;5.01;74.75;102799.59;4860173;29;4070;-90
2022/12/02 05:07:59;;;;;;;;;;;;;;;4.99;74.86;102802.38;4873895;29;4558;-91
2022/12/02 05:10:26;;;;;;;;;;;;;;;4.96;74.90;102799.13;4878294;29;4572;-90
2022/12/02 05:12:53;;;;;;;;;;;;;;;4.95;74.97;102800.97;4874263;29;4547;-90
2022/12/02 05:15:19;;;;;;;;;;;;;;;4.99;74.72;102798.88;4864616;29;4553;-90
2022/12/02 05:17:46;;;;;;;;;;;;;;;5.07;74.45;102788.41;4878825;29;4450;-90
2022/12/02 05:20:13;;;;;;;;;;;;;;;4.95;74.93;102787.59;4856817;29;4531;-91
2022/12/02 05:22:39;;;;;;;;;;;;;;;5.01;74.71;102786.25;4876694;29;4420;-90
2022/12/02 05:25:06;;;;;;;;;;;;;;;4.99;74.88;102793.53;4877505;29;4540;-89
2022/12/02 05:27:33;;;;;;;;;;;;;;;5.04;74.57;102791.34;4861154;29;4552;-90
2022/12/02 05:30:00;;;;;;;;;;;;;;;5.10;74.42;102792.63;4858972;29;4396;-90
2022/12/02 05:32:26;;;;;;;;;;;;;;;5.01;74.81;102794.25;4872896;29;4502;-91
2022/12/02 05:34:53;;;;;;;;;;;;;;;5.03;74.70;102788.78;4871955;29;4448;-91
2022/12/02 05:37:19;;;;;;;;;;;;;;;4.99;74.55;102786.34;4862698;29;4332;-91
2022/12/02 05:39:46;;;;;;;;;;;;;;;5.00;74.87;102784.56;4878565;29;4418;-92
2022/12/02 05:42:13;;;;;;;;;;;;;;;5.03;74.74;102797.66;4874836;29;4406;-91
2022/12/02 05:44:41;;;;;;;;;;;;;;;5.01;74.67;102792.44;4875555;29;4380;-91
2022/12/02 05:47:08;;;;;;;;;;;;;;;5.03;74.71;102794.13;4865691;29;3499;-91
2022/12/02 05:49:34;;;;;;;;;;;;;;;4.96;74.75;102791.97;4862889;29;4546;-91
2022/12/02 05:52:01;;;;;;;;;;;;;;;4.90;75.21;102795.16;4887949;29;4560;-92
2022/12/02 05:54:27;;;;;;;;;;;;;;;4.91;75.15;102793.31;4881098;29;4421;-89
2022/12/02 05:56:54;;;;;;;;;;;;;;;4.90;75.07;102791.63;4875536;29;4429;-89
2022/12/02 05:59:21;;;;;;;;;;;;;;;4.93;74.99;102797.56;4875842;29;4385;-89
2022/12/02 06:01:47;;;;;;;;;;;;;;;4.90;75.14;102792.47;4875702;29;4525;-90
2022/12/02 06:04:14;;;;;;;;;;;;;;;4.93;75.18;102786.88;4876836;29;4342;-91
2022/12/02 06:06:40;;;;;;;;;;;;;;;4.93;74.97;102786.88;4872370;29;4505;-92
2022/12/02 06:09:07;;;;;;;;;;;;;;;4.96;75.03;102788.44;4872784;29;3710;-90
2022/12/02 06:11:35;;;;;;;;;;;;;;;4.89;75.17;102790.78;4870814;29;4706;-91
2022/12/02 06:14:01;;;;;;;;;;;;;;;4.90;75.01;102786.28;4874155;29;4622;-91
2022/12/02 06:16:28;;;;;;;;;;;;;;;4.89;75.32;102787.28;4876739;29;4548;-91
2022/12/02 06:18:54;;;;;;;;;;;;;;;4.91;75.13;102788.84;4870870;29;4633;-93
2022/12/02 06:21:21;;;;;;;;;;;;;;;4.91;75.14;102788.84;4878924;29;4501;-89
2022/12/02 06:23:47;;;;;;;;;;;;;;;4.99;74.98;102793.53;4857497;29;4697;-90
2022/12/02 06:26:14;;;;;;;;;;;;;;;4.98;74.80;102799.84;4873841;29;4540;-89
2022/12/02 06:28:41;;;;;;;;;;;;;;;5.01;74.73;102800.44;4872616;29;4281;-91
2022/12/02 06:31:07;;;;;;;;;;;;;;;5.01;74.89;102802.28;4870779;29;4678;-92
2022/12/02 06:33:34;;;;;;;;;;;;;;;5.04;74.50;102804.69;4874308;29;4512;-90
2022/12/02 06:36:00;;;;;;;;;;;;;;;4.99;74.87;102805.06;4876170;29;4538;-92
2022/12/02 06:38:27;;;;;;;;;;;;;;;4.98;74.74;102803.38;4858743;29;4556;-91
2022/12/02 06:40:53;;;;;;;;;;;;;;;5.04;74.65;102801.16;4863383;29;4546;-93
2022/12/02 06:43:20;;;;;;;;;;;;;;;5.07;74.47;102807.09;4873929;29;4596;-89
2022/12/02 06:45:47;;;;;;;;;;;;;;;5.06;74.61;102812.56;4859133;29;4635;-89
2022/12/02 06:48:13;;;;;;;;;;;;;;;5.10;74.42;102808.66;4874655;29;4674;-90
2022/12/02 06:50:40;;;;;;;;;;;;;;;5.00;74.67;102814.78;4872970;29;4564;-90
2022/12/02 06:53:07;;;;;;;;;;;;;;;5.08;74.42;102810.59;4874546;29;4502;-91
2022/12/02 06:55:33;;;;;;;;;;;;;;;5.09;74.38;102804.28;4855954;29;4462;-91
2022/12/02 06:58:00;;;;;;;;;;;;;;;5.11;74.26;102807.69;4872904;29;4396;-91
2022/12/02 07:00:26;;;;;;;;;;;;;;;5.13;74.31;102813.75;4857325;29;4486;-90
2022/12/02 07:02:53;;;;;;;;;;;;;;;5.05;74.53;102821.56;4876057;29;4356;-90
2022/12/02 07:05:20;;;;;;;;;;;;;;;5.04;74.52;102815.38;4856498;29;4448;-90
2022/12/02 07:07:46;;;;;;;;;;;;;;;5.09;74.40;102821.19;4876116;29;4098;-91
2022/12/02 07:10:13;;;;;;;;;;;;;;;5.09;74.40;102821.19;4872795;29;4537;-89
2022/12/02 07:12:41;;;;;;;;;;;;;;;5.07;74.70;102819.63;4873953;29;4423;-91
2022/12/02 07:15:08;;;;;;;;;;;;;;;5.07;74.62;102830.28;4872923;29;4481;-89
2022/12/02 07:17:34;;;;;;;;;;;;;;;5.07;74.57;102827.63;4876516;29;4584;-91
2022/12/02 07:20:01;;;;;;;;;;;;;;;5.11;74.54;102831.72;4873891;29;3630;-90
2022/12/02 07:22:27;;;;;;;;;;;;;;;5.03;74.71;102832.38;4856800;29;4416;-89
2022/12/02 07:24:54;;;;;;;;;;;;;;;5.05;74.76;102826.91;4883560;29;4413;-91
2022/12/02 07:27:21;;;;;;;;;;;;;;;5.05;74.58;102838.41;4869756;29;4525;-90
2022/12/02 07:29:47;;;;;;;;;;;;;;;5.15;74.46;102835.84;4883548;29;4496;-91
2022/12/02 07:32:13;;;;;;;;;;;;;;;5.07;74.57;102835.63;4887777;29;4648;-91
2022/12/02 07:34:40;;;;;;;;;;;;;;;5.03;74.65;102834.19;4871560;29;4488;-91
2022/12/02 07:37:07;;;;;;;;;;;;;;;5.04;74.64;102839.41;4888209;29;4621;-90
2022/12/02 07:39:33;;;;;;;;;;;;;;;5.08;74.39;102835.50;4873517;29;4755;-90
2022/12/02 07:42:00;;;;;;;;;;;;;;;5.07;74.54;102839.16;4877467;29;4503;-89
2022/12/02 07:44:26;;;;;;;;;;;;;;;5.09;74.47;102839.88;4888498;29;4541;-90
2022/12/02 07:46:53;;;;;;;;;;;;;;;5.07;74.42;102840.97;4872205;29;4474;-92
2022/12/02 07:49:19;;;;;;;;;;;;;;;5.10;74.32;102848.75;4876538;29;4879;-93
2022/12/02 07:51:46;;;;;;;;;;;;;;;5.07;74.47;102849.84;4890495;29;4467;-91
2022/12/02 07:54:13;;;;;;;;;;;;;;;5.06;74.49;102848.16;4870853;29;4363;-92
2022/12/02 07:56:39;;;;;;;;;;;;;;;5.06;74.59;102845.47;4888026;29;4605;-90
2022/12/02 07:59:05;;;;;;;;;;;;;;;5.00;74.79;102849.50;4876477;29;4493;-91
2022/12/02 08:01:32;;;;;;;;;;;;;;;5.14;74.37;102860.84;4874492;29;4447;-90
2022/12/02 08:03:59;;;;;;;;;;;;;;;5.05;74.56;102862.47;4877305;29;4512;-91
2022/12/02 08:06:25;;;;;;;;;;;;;;;5.11;74.27;102861.94;4877762;29;4465;-91
2022/12/02 08:08:52;;;;;;;;;;;;;;;5.05;74.55;102867.81;4896139;29;4484;-89
2022/12/02 08:11:18;;;;;;;;;;;;;;;5.07;74.45;102863.19;4887512;29;4559;-91
2022/12/02 08:13:45;;;;;;;;;;;;;;;5.00;74.87;102865.53;4871250;29;4450;-91
2022/12/02 08:16:11;;;;;;;;;;;;;;;5.04;74.58;102870.63;4886574;29;4467;-92
2022/12/02 08:18:38;;;;;;;;;;;;;;;5.00;74.73;102872.69;4887923;29;4436;-91
2022/12/02 08:21:04;;;;;;;;;;;;;;;5.06;74.66;102866.84;4874066;29;4522;-90
2022/12/02 08:23:31;;;;;;;;;;;;;;;4.97;74.78;102871.13;4888349;29;4554;-91
2022/12/02 08:25:58;;;;;;;;;;;;;;;4.97;75.13;102872.94;4887375;29;4372;-89
2022/12/02 08:28:24;;;;;;;;;;;;;;;5.02;74.69;102868.06;4888302;29;4460;-91
2022/12/02 08:30:51;;;;;;;;;;;;;;;5.00;74.78;102870.03;4887563;29;5101;-91
2022/12/02 08:33:18;;;;;;;;;;;;;;;5.01;74.71;102871.72;4891802;29;4399;-92
2022/12/02 08:35:45;;;;;;;;;;;;;;;5.05;74.53;102873.16;4873068;29;4506;-90
2022/12/02 08:38:11;;;;;;;;;;;;;;;5.00;74.71;102870.03;4874658;29;4799;-91
2022/12/02 08:40:38;;;;;;;;;;;;;;;5.00;74.85;102870.88;4888459;29;4510;-91
2022/12/02 08:43:04;;;;;;;;;;;;;;;4.99;74.77;102866.47;4871819;29;4559;-91
2022/12/02 08:45:30;;;;;;;;;;;;;;;4.99;74.82;102871.81;4874877;29;5091;-91
2022/12/02 08:47:57;;;;;;;;;;;;;;;5.00;74.83;102873.53;4874144;29;4641;-90
2022/12/02 08:50:24;;;;;;;;;;;;;;;5.00;74.68;102870.88;4872239;29;4566;-92
2022/12/02 08:52:50;;;;;;;;;;;;;;;5.04;74.56;102866.13;4873785;29;4601;-90
2022/12/02 08:55:17;;;;;;;;;;;;;;;4.98;74.82;102867.47;4888379;29;4565;-91
2022/12/02 08:57:43;;;;;;;;;;;;;;;5.05;74.55;102872.31;4888344;29;4538;-91
2022/12/02 09:00:10;;;;;;;;;;;;;;;5.07;74.44;102871.22;4870094;29;4748;-90
2022/12/02 09:02:36;;;;;;;;;;;;;;;5.05;74.48;102870.47;4873790;29;4410;-91
2022/12/02 09:05:03;;;;;;;;;;;;;;;5.03;74.60;102869.78;4890960;29;4443;-90
2022/12/02 09:07:29;;;;;;;;;;;;;;;5.04;74.53;102876.81;4868294;29;4560;-90
2022/12/02 09:09:56;;;;;;;;;;;;;;;5.04;74.63;102871.47;4873419;29;4497;-90
2022/12/02 09:12:23;;;;;;;;;;;;;;;5.10;74.63;102876.28;4889316;29;4513;-90
2022/12/02 09:14:50;;;;;;;;;;;;;;;5.04;74.56;102875.97;4869794;29;4553;-90
2022/12/02 09:17:16;;;;;;;;;;;;;;;5.04;74.61;102875.97;4887349;29;4384;-90
2022/12/02 09:19:43;;;;;;;;;;;;;;;5.07;74.40;102878.38;4870470;29;4486;-89
2022/12/02 09:22:09;;;;;;;;;;;;;;;5.10;74.24;102886.97;4889355;29;4432;-91
2022/12/02 09:24:36;;;;;;;;;;;;;;;5.06;74.48;102887.34;4882196;29;4472;-91
2022/12/02 09:27:02;;;;;;;;;;;;;;;5.09;74.38;102884.41;4871654;29;4760;-90
2022/12/02 09:29:29;;;;;;;;;;;;;;;5.07;74.20;102892.56;4888738;29;4637;-89
2022/12/02 09:31:56;;;;;;;;;;;;;;;5.04;74.59;102889.31;4870178;29;4435;-90
2022/12/02 09:34:22;;;;;;;;;;;;;;;5.13;74.31;102885.88;4869690;29;4881;-90
2022/12/02 09:36:49;;;;;;;;;;;;;;;5.06;74.37;102895.34;4869408;29;4377;-91
2022/12/02 09:39:15;;;;;;;;;;;;;;;5.08;74.28;102886.25;4872124;29;4481;-89
2022/12/02 09:41:42;;;;;;;;;;;;;;;5.06;74.63;102887.34;4859472;29;4448;-91
2022/12/02 09:44:09;;;;;;;;;;;;;;;5.09;74.41;102890.63;4861244;29;4580;-91
2022/12/02 09:46:35;;;;;;;;;;;;;;;5.06;74.46;102890.88;4866822;29;4669;-90
2022/12/02 09:49:02;;;;;;;;;;;;;;;4.86;74.26;102860.47;4874608;29;4561;-89
2022/12/02 09:51:28;;;;;;;;;;;;;;;5.18;74.25;102895.22;4872563;29;4521;-90
2022/12/02 09:53:55;;;;;;;;;;;;;;;5.17;74.03;102896.16;4889207;29;4536;-89
2022/12/02 09:56:21;;;;;;;;;;;;;;;5.23;73.88;102890.34;4873841;29;4549;-88
2022/12/02 09:58:48;;;;;;;;;;;;;;;5.13;74.20;102886.72;4876009;29;4559;-90
2022/12/02 10:01:14;;;;;;;;;;;;;;;5.13;74.28;102891.22;4876401;29;4548;-89
2022/12/02 10:03:41;;;;;;;;;;;;;;;5.12;74.27;102887.72;4871866;29;4509;-89
2022/12/02 10:06:08;;;;;;;;;;;;;;;5.16;74.23;102889.13;4886849;29;4468;-90
2022/12/02 10:08:34;;;;;;;;;;;;;;;5.21;73.96;102897.63;4875372;29;4535;-91
2022/12/02 10:11:01;;;;;;;;;;;;;;;5.20;73.92;102901.25;4869616;29;4601;-91
2022/12/02 10:13:28;;;;;;;;;;;;;;;5.19;74.24;102896.06;4870439;29;4553;-91
2022/12/02 10:15:54;;;;;;;;;;;;;;;5.17;74.27;102898.84;4871668;29;4654;-89
2022/12/02 10:18:21;;;;;;;;;;;;;;;5.21;74.18;102889.63;4883622;29;4610;-88
2022/12/02 10:20:49;;;;;;;;;;;;;;;5.25;74.18;102895.53;4890725;29;4605;-89
2022/12/02 10:23:15;;;;;;;;;;;;;;;5.22;73.89;102891.31;4885324;29;4617;-90
2022/12/02 10:25:42;;;;;;;;;;;;;;;5.28;73.44;102891.78;4886374;29;4667;-90
2022/12/02 10:28:09;;;;;;;;;;;;;;;5.20;74.09;102882.56;4890950;29;4463;-89
2022/12/02 10:30:35;;;;;;;;;;;;;;;5.14;74.28;102882.22;4868632;29;4458;-89
2022/12/02 10:33:02;;;;;;;;;;;;;;;5.22;74.00;102880.63;4886271;29;4527;-89
2022/12/02 10:35:28;;;;;;;;;;;;;;;5.21;74.15;102873.59;4886528;29;4550;-90
2022/12/02 10:37:55;;;;;;;;;;;;;;;5.12;74.28;102879.69;4880522;29;4365;-90
2022/12/02 10:40:21;;;;;;;;;;;;;;;5.16;74.26;102881.13;4885599;29;4478;-90
2022/12/02 10:42:48;;;;;;;;;;;;;;;5.15;74.08;102884.78;4884695;29;4442;-91
2022/12/02 10:45:14;;;;;;;;;;;;;;;5.12;74.40;102878.84;4889447;29;4729;-90
2022/12/02 10:47:41;;;;;;;;;;;;;;;5.17;74.23;102881.97;4891574;29;4492;-91
2022/12/02 10:50:07;;;;;;;;;;;;;;;5.23;74.07;102881.44;4870015;29;4561;-93
2022/12/02 10:52:34;;;;;;;;;;;;;;;5.20;73.98;102877.22;4886279;29;4508;-92
2022/12/02 10:55:01;;;;;;;;;;;;;;;5.12;74.29;102876.19;4887184;29;4549;-91
2022/12/02 10:57:27;;;;;;;;;;;;;;;5.13;74.42;102880.53;4885793;29;4550;-92
2022/12/02 10:59:54;;;;;;;;;;;;;;;5.15;74.36;102876.75;4889478;29;4515;-91
2022/12/02 11:02:22;;;;;;;;;;;;;;;5.09;74.38;102877.28;4884598;29;4483;-91
2022/12/02 11:04:49;;;;;;;;;;;;;;;5.19;74.15;102878.19;4889161;29;4498;-90
2022/12/02 11:07:15;;;;;;;;;;;;;;;5.10;74.33;102876.28;4864854;29;4425;-91
2022/12/02 11:09:41;;;;;;;;;;;;;;;5.17;74.27;102872.13;4860366;29;4352;-92
2022/12/02 11:12:08;;;;;;;;;;;;;;;5.21;74.20;102872.75;4879601;29;4341;-92
2022/12/02 11:14:35;;;;;;;;;;;;;;;5.15;74.34;102874.09;4877904;29;4558;-93
2022/12/02 11:17:01;;;;;;;;;;;;;;;5.15;74.32;102878.59;4866764;29;4677;-92
2022/12/02 11:19:28;;;;;;;;;;;;;;;5.20;74.03;102877.22;4882328;29;4358;-92
2022/12/02 11:21:55;;;;;;;;;;;;;;;5.10;74.72;102867.44;4883629;29;4491;-93
2022/12/02 11:24:21;;;;;;;;;;;;;;;5.09;74.51;102871.06;4887271;29;4448;-94
2022/12/02 11:26:48;;;;;;;;;;;;;;;5.04;74.75;102866.13;4865800;29;4385;-92
2022/12/02 11:29:18;;;;;;;;;;;;;;;5.05;74.63;102867.81;4876888;29;4480;-92
2022/12/02 11:31:44;;;;;;;;;;;;;;;5.07;74.52;102876.53;4891455;29;4273;-91
2022/12/02 11:34:11;;;;;;;;;;;;;;;5.13;74.50;102869.84;4874959;29;4555;-91
2022/12/02 11:36:37;;;;;;;;;;;;;;;5.20;74.15;102868.34;4890346;29;4443;-92
2022/12/02 11:39:04;;;;;;;;;;;;;;;5.11;74.26;102861.94;4875799;29;4302;-91
2022/12/02 11:41:31;;;;;;;;;;;;;;;5.10;74.62;102868.28;4875822;29;4621;-92
2022/12/02 11:43:57;;;;;;;;;;;;;;;5.11;74.48;102871.78;4874027;29;4449;-92
2022/12/02 11:46:24;;;;;;;;;;;;;;;5.12;74.56;102870.84;4871490;29;4638;-91
2022/12/02 11:48:51;;;;;;;;;;;;;;;5.12;74.56;102863.66;4874136;29;4470;-92
2022/12/02 11:51:17;;;;;;;;;;;;;;;5.12;74.44;102865.50;4887757;29;4562;-92
2022/12/02 11:53:43;;;;;;;;;;;;;;;5.09;74.65;102863.03;4877945;29;4521;-93
2022/12/02 11:56:10;;;;;;;;;;;;;;;5.05;74.86;102861.63;4895099;29;4717;-93
2022/12/02 11:58:37;;;;;;;;;;;;;;;5.03;74.77;102863.56;4888986;29;4581;-93
2022/12/02 12:01:03;;;;;;;;;;;;;;;5.02;75.01;102865.38;4892581;29;4470;-92
2022/12/02 12:03:30;;;;;;;;;;;;;;;5.01;74.84;102863.69;4893768;29;4352;-92
2022/12/02 12:05:56;;;;;;;;;;;;;;;5.05;74.64;102875.81;4882317;29;4406;-92
2022/12/02 12:08:23;;;;;;;;;;;;;;;5.08;74.61;102869.38;4897181;29;4649;-93
2022/12/02 12:10:50;;;;;;;;;;;;;;;5.07;74.62;102870.38;4900842;29;3509;-93
2022/12/02 12:13:18;;;;;;;;;;;;;;;5.12;74.50;102862.81;4902627;29;4499;-94
2022/12/02 12:15:44;;;;;;;;;;;;;;;5.09;74.44;102869.25;4888686;29;4328;-94
2022/12/02 12:18:11;;;;;;;;;;;;;;;5.08;74.64;102861.38;4898360;29;4359;-94
2022/12/02 12:20:38;;;;;;;;;;;;;;;5.09;74.61;102863.91;4901851;29;4424;-94
2022/12/02 12:23:04;;;;;;;;;;;;;;;5.16;74.31;102866.94;4892123;29;4354;-94
2022/12/02 12:25:31;;;;;;;;;;;;;;;5.07;74.63;102860.53;4896458;29;4442;-93
2022/12/02 12:27:58;;;;;;;;;;;;;;;5.06;74.74;102864.19;4901850;29;4266;-93
2022/12/02 12:30:24;;;;;;;;;;;;;;;5.04;74.73;102867.94;4882739;29;4434;-93
2022/12/02 12:32:52;;;;;;;;;;;;;;;5.09;74.56;102866.59;4894139;29;4392;-93
2022/12/02 12:35:18;;;;;;;;;;;;;;;5.10;74.76;102862.09;4883565;29;4578;-94
2022/12/02 12:37:45;;;;;;;;;;;;;;;5.06;74.57;102853.50;4895535;29;4634;-93
2022/12/02 12:40:12;;;;;;;;;;;;;;;5.01;74.95;102859.19;4898280;29;4555;-93
2022/12/02 12:42:38;;;;;;;;;;;;;;;5.04;74.78;102858.09;4879426;29;4477;-92
2022/12/02 12:45:05;;;;;;;;;;;;;;;5.14;74.34;102864.38;4894715;29;4114;-93
2022/12/02 12:47:31;;;;;;;;;;;;;;;5.08;74.87;102866.72;4893305;29;4428;-94
2022/12/02 12:49:58;;;;;;;;;;;;;;;5.15;74.41;102868.75;4890790;29;4624;-94
2022/12/02 12:52:24;;;;;;;;;;;;;;;5.20;74.33;102868.34;4874770;29;4541;-91
2022/12/02 12:54:51;;;;;;;;;;;;;;;5.16;74.20;102869.59;4889383;29;4463;-93
2022/12/02 12:57:19;;;;;;;;;;;;;;;5.20;74.10;102873.69;4890377;29;4856;-95
2022/12/02 12:59:45;;;;;;;;;;;;;;;5.25;73.98;102868.81;4891562;29;4524;-91